Terminal Aerodrome Forecast
Issued by NWS

Home | Current Version | Previous Version | Text Only | Print | Product List | Glossary On
Versions: 1 2 3 4 5 6 7 8 9 10 11 12 13 14 15
000
FTUS44 KJAN 012300
TAFGTR
TAF
KGTR 012320Z 0200/0224 14005KT 6SM -RA BR SCT007 OVC015
     FM020200 13004KT 4SM -RA BR OVC007
     FM020400 13005KT 4SM BR OVC003
     FM020800 01005KT 2SM -RA BR OVC003
     FM021100 36009KT 4SM -RA BR OVC003=

USA.gov is the U.S. government's official web portal to all federal, state and local government web resources and services.